Burley Municipal Airport
KBYI : now visible

Airfield :











YOU CAN JOIN US ON...

 
LOGIN :

Register | Disclaimer

   EN    FR    IT 

 









Legend :    VFR   Marginal VFR   IFR   Intensive IFR   Very Intensive IFR
Visi :
Ceiling :
>= 8 km
>= 3000ft
5 to 8 km
1000 to 3000 ft
1500m to 5 km
500 to 1000 ft
800 to 1500m
200 to 500 ft
< 800m
< 200 ft
Symbols :   Thunderstorms  Fog  Heavy snow  Heavy precipitations  Wind > 20 kt






- Airport Elevation : 4150 ft


KBYI - Burley Municipal

CURRENT METAR :
  • 170853Z AUTO 25003KT 10SM OVC110 M02/M04 A3031 RMK AO2 SLP275 I3001 T10171039 58008

EXPIRED METARs :
  • 170753Z AUTO 00000KT 9SM BKN110 M02/M04 A3034 RMK AO2 SLP286 T10221039
  • 170746Z AUTO 00000KT 7SM BKN110 M02/M04 A3033 RMK AO2 T10221039
  • 170718Z AUTO 00000KT 3SM BR SCT001 OVC110 M03/M04 A3034 RMK AO2 T10281039
  • 170707Z AUTO 00000KT 2SM BR BKN001 OVC110 M03/M04 A3035 RMK AO2 T10281039
  • 170653Z AUTO 00000KT 2 1/2SM BR BKN001 OVC110 M02/M03 A3036 RMK AO2 SLP295 I1001 T10221033 400671033
  • 170646Z AUTO 32003KT 4SM BR SCT001 BKN110 M02/M04 A3036 RMK AO2 I1000 T10221039

TAF KBYI
Valid from the 17 at 07:00 until the 18 at 06:00 UTC


170659Z 1707/1806 VRB04KT 5SM BR VCFG SCT010 BKN110
TEMPO 1707/1710 2SM BR BKN001
FM171900 26011KT P6SM BKN070
KZLC FIR / North America



MET'MAP, your aeronautical weather chart ! - Copyright ORBIFLY December 2007 - Disclaimer

ORBIFLY MET'MAP TEAM :

Programming & Development : Alexandra Zaïnal
Concept & original design : Baudouin d'Aumeries
Assistance for programming : Marc-Olivier Méhu
Technical & hardware support : Manuel Goepfert

Contact : metmap@orbifly.com




SOURCES & CREDITS :

   NOAA       Earth
Advisory